createdAt,value
2023-06-10T00:01:41.643Z,21.19
2023-06-10T00:04:08.454Z,21.16
2023-06-10T00:06:36.784Z,21.11
2023-06-10T00:09:06.993Z,21.10
2023-06-10T00:11:33.669Z,21.09
2023-06-10T00:14:01.104Z,21.06
2023-06-10T00:16:27.790Z,21.04
2023-06-10T00:18:56.673Z,21.01
2023-06-10T00:21:23.444Z,20.98
2023-06-10T00:23:50.720Z,20.98
2023-06-10T00:26:17.418Z,20.92
2023-06-10T00:28:45.938Z,20.91
2023-06-10T00:31:12.499Z,20.89
2023-06-10T00:33:38.926Z,20.84
2023-06-10T00:36:05.649Z,20.80
2023-06-10T00:38:32.945Z,20.77
2023-06-10T00:40:59.765Z,20.76
2023-06-10T00:43:26.300Z,20.73
2023-06-10T00:45:53.233Z,20.69
2023-06-10T00:48:20.715Z,20.67
2023-06-10T00:50:48.305Z,20.64
2023-06-10T00:53:14.960Z,20.62
2023-06-10T00:55:42.279Z,20.61
2023-06-10T00:58:09.345Z,20.58
2023-06-10T01:00:36.428Z,20.55
2023-06-10T01:03:08.727Z,20.52
2023-06-10T01:05:37.400Z,20.48
2023-06-10T01:08:30.409Z,20.45
2023-06-10T01:11:02.646Z,20.42
2023-06-10T01:13:30.314Z,20.41
2023-06-10T01:15:57.897Z,20.41
2023-06-10T01:18:24.675Z,20.40
2023-06-10T01:20:53.224Z,20.34
2023-06-10T01:23:19.698Z,20.31
2023-06-10T01:26:05.296Z,20.30
2023-06-10T01:28:58.411Z,20.29
2023-06-10T01:31:37.579Z,20.26
2023-06-10T01:34:14.874Z,20.23
2023-06-10T01:36:45.073Z,20.21
2023-06-10T01:39:12.376Z,20.19
2023-06-10T01:41:39.448Z,20.17
2023-06-10T01:44:05.947Z,20.13
2023-06-10T01:46:32.576Z,20.10
2023-06-10T01:48:59.271Z,20.07
2023-06-10T01:51:25.866Z,20.06
2023-06-10T01:53:52.302Z,20.02
2023-06-10T01:56:20.758Z,19.99
2023-06-10T01:58:47.851Z,19.98
2023-06-10T02:01:14.865Z,19.95
2023-06-10T02:03:42.054Z,19.91
2023-06-10T02:06:08.725Z,19.87
2023-06-10T02:08:35.736Z,19.86
2023-06-10T02:11:02.477Z,19.85
2023-06-10T02:13:28.979Z,19.83
2023-06-10T02:15:55.491Z,19.79
2023-06-10T02:18:22.864Z,19.78
2023-06-10T02:20:49.795Z,19.75
2023-06-10T02:23:16.288Z,19.68
2023-06-10T02:25:42.770Z,19.64
2023-06-10T02:28:09.524Z,19.62
2023-06-10T02:30:36.619Z,19.56
2023-06-10T02:33:03.160Z,19.54
2023-06-10T02:35:29.731Z,19.52
2023-06-10T02:37:56.330Z,19.50
2023-06-10T02:40:23.047Z,19.47
2023-06-10T02:42:50.525Z,19.41
2023-06-10T02:45:17.828Z,19.38
2023-06-10T02:47:44.490Z,19.35
2023-06-10T02:50:13.945Z,19.32
2023-06-10T02:52:40.424Z,19.30
2023-06-10T02:55:07.865Z,19.25
2023-06-10T02:57:34.550Z,19.23
2023-06-10T03:00:01.280Z,19.22
2023-06-10T03:02:29.585Z,19.20
2023-06-10T03:04:56.878Z,19.18
2023-06-10T03:07:24.118Z,19.13
2023-06-10T03:09:51.524Z,19.08
2023-06-10T03:12:18.055Z,19.07
2023-06-10T03:14:44.557Z,19.03
2023-06-10T03:17:11.017Z,19.00
2023-06-10T03:19:38.992Z,18.95
2023-06-10T03:22:13.746Z,18.93
2023-06-10T03:24:41.487Z,18.92
2023-06-10T03:27:09.149Z,18.89
2023-06-10T03:29:35.862Z,18.88
2023-06-10T03:32:02.950Z,18.85
2023-06-10T03:34:29.450Z,18.81
2023-06-10T03:36:55.883Z,18.81
2023-06-10T03:39:22.478Z,18.82
2023-06-10T03:41:49.089Z,18.82
2023-06-10T03:44:16.057Z,18.82
2023-06-10T03:46:42.696Z,18.79
2023-06-10T03:49:10.547Z,18.77
2023-06-10T03:51:37.870Z,18.76
2023-06-10T03:54:04.387Z,18.71
2023-06-10T03:56:30.881Z,18.70
2023-06-10T03:58:57.312Z,18.70
2023-06-10T04:01:24.644Z,18.70
2023-06-10T04:03:52.468Z,18.71
2023-06-10T04:06:18.956Z,18.72
2023-06-10T04:08:45.973Z,18.73
2023-06-10T04:11:12.624Z,18.73
2023-06-10T04:13:39.143Z,18.73
2023-06-10T04:16:06.145Z,18.74
2023-06-10T04:18:32.590Z,18.75
2023-06-10T04:20:59.243Z,18.73
2023-06-10T04:23:25.804Z,18.73
2023-06-10T04:25:52.271Z,18.76
2023-06-10T04:28:18.717Z,18.73
2023-06-10T04:30:47.017Z,18.74
2023-06-10T04:33:13.588Z,18.74
2023-06-10T04:35:40.294Z,18.79
2023-06-10T04:38:06.946Z,18.82
2023-06-10T04:40:33.663Z,18.87
2023-06-10T04:43:00.071Z,18.90
2023-06-10T04:45:31.492Z,18.95
2023-06-10T04:47:59.519Z,18.98
2023-06-10T04:50:26.131Z,18.99
2023-06-10T04:52:52.620Z,19.01
2023-06-10T04:55:19.184Z,19.07
2023-06-10T04:57:45.829Z,19.13
2023-06-10T05:00:12.842Z,19.18
2023-06-10T05:02:39.351Z,19.20
2023-06-10T05:05:06.084Z,19.24
2023-06-10T05:07:32.708Z,19.25
2023-06-10T05:09:59.200Z,19.30
2023-06-10T05:12:25.765Z,19.36
2023-06-10T05:14:52.213Z,19.40
2023-06-10T05:17:18.858Z,19.44
2023-06-10T05:19:45.595Z,19.48
2023-06-10T05:22:12.285Z,19.53
2023-06-10T05:24:39.132Z,19.60
2023-06-10T05:27:10.018Z,19.63
2023-06-10T05:29:36.522Z,19.68
2023-06-10T05:32:04.530Z,19.70
2023-06-10T05:34:32.068Z,19.72
2023-06-10T05:36:59.084Z,19.79
2023-06-10T05:39:25.514Z,19.89
2023-06-10T05:41:52.392Z,19.93
2023-06-10T05:44:18.822Z,19.99
2023-06-10T05:46:45.386Z,20.07
2023-06-10T05:49:11.894Z,20.17
2023-06-10T05:51:39.246Z,20.23
2023-06-10T05:54:05.936Z,20.27
2023-06-10T05:56:32.401Z,20.34
2023-06-10T05:59:01.656Z,20.37
2023-06-10T06:01:28.186Z,20.45
2023-06-10T06:03:54.725Z,20.53
2023-06-10T06:06:24.800Z,20.58
2023-06-10T06:08:51.286Z,20.69
2023-06-10T06:11:17.839Z,20.78
2023-06-10T06:13:44.310Z,20.89
2023-06-10T06:16:10.983Z,21.01
2023-06-10T06:18:37.492Z,21.04
2023-06-10T06:21:06.865Z,21.12
2023-06-10T06:23:33.553Z,21.24
2023-06-10T06:25:59.996Z,21.36
2023-06-10T06:28:30.311Z,21.41
2023-06-10T06:30:58.232Z,21.51
2023-06-10T06:33:27.343Z,21.59
2023-06-10T06:35:53.806Z,21.60
2023-06-10T06:38:20.330Z,21.66
2023-06-10T06:40:46.943Z,21.79
2023-06-10T06:43:13.392Z,21.82
2023-06-10T06:45:39.812Z,21.85
2023-06-10T06:48:06.944Z,21.96
2023-06-10T06:50:33.715Z,22.09
2023-06-10T06:53:00.366Z,22.20
2023-06-10T06:55:26.779Z,22.24
2023-06-10T06:57:56.215Z,22.24
2023-06-10T07:00:22.948Z,22.34
2023-06-10T07:02:49.661Z,22.43
2023-06-10T07:05:16.266Z,22.53
2023-06-10T07:07:42.733Z,22.57
2023-06-10T07:10:09.644Z,22.71
2023-06-10T07:12:36.183Z,22.82
2023-06-10T07:15:02.776Z,22.92
2023-06-10T07:17:29.282Z,23.00
2023-06-10T07:19:58.498Z,23.11
2023-06-10T07:22:25.177Z,23.17
2023-06-10T07:24:53.000Z,23.16
2023-06-10T07:27:19.658Z,23.22
2023-06-10T07:29:46.351Z,23.32
2023-06-10T07:32:12.987Z,23.51
2023-06-10T07:34:39.570Z,23.63
2023-06-10T07:37:06.578Z,23.72
2023-06-10T07:39:33.069Z,23.80
2023-06-10T07:41:59.662Z,23.80
2023-06-10T07:44:26.233Z,23.87
2023-06-10T07:46:52.907Z,24.00
2023-06-10T07:49:19.528Z,24.15
2023-06-10T07:51:46.274Z,24.31
2023-06-10T07:54:13.398Z,24.39
2023-06-10T07:56:40.691Z,24.44
2023-06-10T07:59:07.212Z,24.49
2023-06-10T08:01:34.180Z,24.62
2023-06-10T08:04:00.977Z,24.72
2023-06-10T08:06:27.729Z,24.85
2023-06-10T08:08:54.509Z,24.92
2023-06-10T08:11:21.741Z,25.10
2023-06-10T08:13:48.475Z,25.27
2023-06-10T08:16:14.967Z,25.48
2023-06-10T08:18:41.741Z,25.58
2023-06-10T08:21:08.261Z,25.66
2023-06-10T08:23:34.931Z,25.81
2023-06-10T08:26:01.392Z,25.90
2023-06-10T08:28:27.931Z,26.03
2023-06-10T08:30:57.403Z,26.14
2023-06-10T08:33:24.176Z,26.23
2023-06-10T08:35:50.650Z,26.21
2023-06-10T08:38:17.302Z,26.22
2023-06-10T08:40:44.215Z,26.25
2023-06-10T08:43:45.188Z,26.38
2023-06-10T08:46:13.264Z,26.49
2023-06-10T08:48:43.933Z,26.59
2023-06-10T08:51:13.245Z,26.80
2023-06-10T08:53:50.918Z,27.00
2023-06-10T08:56:18.695Z,27.09
2023-06-10T08:58:46.852Z,27.14
2023-06-10T09:01:14.536Z,27.30
2023-06-10T09:03:42.750Z,27.39
2023-06-10T09:06:10.083Z,27.62
2023-06-10T09:08:36.881Z,27.78
2023-06-10T09:11:03.473Z,27.96
2023-06-10T09:13:30.570Z,27.87
2023-06-10T09:16:01.366Z,27.90
2023-06-10T09:18:32.111Z,28.09
2023-06-10T09:20:59.730Z,28.25
2023-06-10T09:23:27.058Z,28.26
2023-06-10T09:25:58.948Z,28.38
2023-06-10T09:28:26.153Z,28.55
2023-06-10T09:31:04.204Z,28.61
2023-06-10T09:33:30.794Z,28.65
2023-06-10T09:36:02.114Z,28.77
2023-06-10T09:38:36.264Z,28.95
2023-06-10T09:41:04.285Z,29.06
2023-06-10T09:43:46.178Z,29.18
2023-06-10T09:46:21.350Z,29.30
2023-06-10T09:48:48.857Z,29.33
2023-06-10T09:51:18.169Z,29.40
2023-06-10T09:53:50.077Z,29.56
2023-06-10T09:56:16.880Z,29.75
2023-06-10T09:58:44.618Z,29.91
2023-06-10T10:01:13.435Z,30.04
2023-06-10T10:03:47.577Z,30.18
2023-06-10T10:06:15.837Z,30.20
2023-06-10T10:08:42.545Z,30.21
2023-06-10T10:11:09.954Z,30.39
2023-06-10T10:13:38.172Z,30.50
2023-06-10T10:16:13.302Z,30.48
2023-06-10T10:18:46.837Z,30.67
2023-06-10T10:21:14.692Z,30.74
2023-06-10T10:24:01.362Z,30.86
2023-06-10T10:26:28.412Z,31.06
2023-06-10T10:29:15.606Z,31.07
2023-06-10T10:31:45.409Z,31.22
2023-06-10T10:34:18.129Z,31.32
2023-06-10T10:36:46.376Z,31.31
2023-06-10T10:39:13.314Z,31.54
2023-06-10T10:41:40.725Z,31.51
2023-06-10T10:44:09.135Z,31.70
2023-06-10T10:46:55.274Z,31.83
2023-06-10T10:49:23.927Z,31.94
2023-06-10T10:52:02.443Z,32.01
2023-06-10T10:54:33.801Z,32.01
2023-06-10T10:57:23.318Z,32.21
2023-06-10T10:59:49.841Z,32.47
2023-06-10T11:02:19.022Z,32.69
2023-06-10T11:04:49.841Z,32.52
2023-06-10T11:07:22.750Z,32.47
2023-06-10T11:10:08.171Z,32.56
2023-06-10T11:12:46.697Z,32.65
2023-06-10T11:15:21.472Z,33.00
2023-06-10T11:18:13.030Z,33.23
2023-06-10T11:20:53.806Z,33.09
2023-06-10T11:23:29.604Z,33.17
2023-06-10T11:26:23.002Z,33.16
2023-06-10T11:28:55.530Z,33.27
2023-06-10T11:31:22.878Z,33.37
2023-06-10T11:33:54.149Z,33.52
2023-06-10T11:36:20.859Z,33.56
2023-06-10T11:38:47.617Z,33.53
2023-06-10T11:41:15.480Z,33.52
2023-06-10T11:43:46.841Z,33.49
2023-06-10T11:46:15.045Z,33.38
2023-06-10T11:48:55.698Z,33.33
2023-06-10T11:51:22.692Z,33.64
2023-06-10T11:53:50.402Z,33.64
2023-06-10T11:56:24.290Z,33.72
2023-06-10T11:58:59.045Z,33.90
2023-06-10T12:01:33.280Z,34.19
2023-06-10T12:04:00.889Z,34.24
2023-06-10T12:06:27.671Z,34.37
2023-06-10T12:08:55.413Z,34.39
2023-06-10T12:11:22.597Z,34.27
2023-06-10T12:13:50.830Z,34.32
2023-06-10T12:16:18.144Z,34.32
2023-06-10T12:18:46.442Z,34.43
2023-06-10T12:21:21.207Z,34.61
2023-06-10T12:24:08.992Z,34.68
2023-06-10T12:26:37.273Z,34.76
2023-06-10T12:29:25.371Z,35.15
2023-06-10T12:32:08.729Z,35.38
2023-06-10T12:34:40.384Z,35.42
2023-06-10T12:37:14.568Z,35.60
2023-06-10T12:39:42.793Z,35.48
2023-06-10T12:42:13.604Z,35.57
2023-06-10T12:44:42.016Z,35.77
2023-06-10T12:47:13.389Z,35.63
2023-06-10T12:49:40.218Z,35.49
2023-06-10T12:52:08.293Z,35.45
2023-06-10T12:54:35.635Z,35.19
2023-06-10T12:57:02.384Z,35.10
2023-06-10T12:59:34.986Z,35.19
2023-06-10T13:02:01.441Z,35.13
2023-06-10T13:04:28.041Z,35.08
2023-06-10T13:06:54.693Z,35.12
2023-06-10T13:09:21.177Z,35.41
2023-06-10T13:11:47.839Z,35.49
2023-06-10T13:14:14.415Z,35.44
2023-06-10T13:16:41.118Z,35.80
2023-06-10T13:19:07.770Z,36.01
2023-06-10T13:21:35.305Z,36.10
2023-06-10T13:24:02.133Z,35.93
2023-06-10T13:26:28.662Z,35.78
2023-06-10T13:28:55.310Z,35.70
2023-06-10T13:31:24.870Z,35.83
2023-06-10T13:33:51.449Z,36.05
2023-06-10T13:36:17.943Z,36.52
2023-06-10T13:38:44.494Z,36.63
2023-06-10T13:41:11.249Z,36.55
2023-06-10T13:43:37.733Z,36.77
2023-06-10T13:46:04.395Z,36.79
2023-06-10T13:48:30.861Z,36.97
2023-06-10T13:50:58.048Z,37.22
2023-06-10T13:53:24.586Z,37.47
2023-06-10T13:55:51.106Z,37.41
2023-06-10T13:58:17.608Z,37.45
2023-06-10T14:00:44.236Z,37.46
2023-06-10T14:03:10.989Z,37.82
2023-06-10T14:05:37.612Z,38.00
2023-06-10T14:08:04.414Z,37.72
2023-06-10T14:10:31.029Z,37.87
2023-06-10T14:12:57.586Z,37.85
2023-06-10T14:15:24.295Z,37.65
2023-06-10T14:17:50.903Z,37.71
2023-06-10T14:20:17.420Z,37.70
2023-06-10T14:22:44.029Z,37.93
2023-06-10T14:25:12.577Z,38.07
2023-06-10T14:27:39.307Z,38.12
2023-06-10T14:30:06.662Z,38.30
2023-06-10T14:32:33.333Z,38.35
2023-06-10T14:34:59.965Z,38.33
2023-06-10T14:37:26.447Z,38.51
2023-06-10T14:39:52.894Z,38.54
2023-06-10T14:42:19.339Z,38.64
2023-06-10T14:44:45.782Z,38.42
2023-06-10T14:47:12.303Z,38.10
2023-06-10T14:49:38.788Z,37.80
2023-06-10T14:52:05.517Z,37.84
2023-06-10T14:54:32.030Z,38.12
2023-06-10T14:56:58.509Z,38.11
2023-06-10T14:59:25.087Z,38.04
2023-06-10T15:01:51.664Z,38.13
2023-06-10T15:04:20.310Z,38.19
2023-06-10T15:06:50.187Z,38.06
2023-06-10T15:09:17.141Z,38.12
2023-06-10T15:11:43.687Z,38.15
2023-06-10T15:14:10.148Z,38.24
2023-06-10T15:16:36.660Z,38.36
2023-06-10T15:19:03.116Z,38.41
2023-06-10T15:21:29.634Z,38.37
2023-06-10T15:23:56.248Z,38.41
2023-06-10T15:26:22.806Z,38.34
2023-06-10T15:28:49.231Z,38.21
2023-06-10T15:31:16.235Z,38.27
2023-06-10T15:33:45.161Z,38.55
2023-06-10T15:36:14.547Z,38.86
2023-06-10T15:38:41.274Z,39.24
2023-06-10T15:41:07.830Z,39.17
2023-06-10T15:43:34.275Z,39.18
2023-06-10T15:46:00.716Z,38.97
2023-06-10T15:48:27.179Z,38.86
2023-06-10T15:50:53.746Z,38.74
2023-06-10T15:53:20.151Z,38.98
2023-06-10T15:55:46.869Z,39.04
2023-06-10T15:58:13.496Z,38.99
2023-06-10T16:00:39.896Z,39.11
2023-06-10T16:03:06.655Z,39.43
2023-06-10T16:05:33.127Z,39.17
2023-06-10T16:08:03.441Z,39.15
2023-06-10T16:10:30.225Z,39.33
2023-06-10T16:12:56.801Z,39.52
2023-06-10T16:15:23.227Z,39.42
2023-06-10T16:17:49.696Z,39.46
2023-06-10T16:20:16.411Z,39.57
2023-06-10T16:22:42.893Z,39.64
2023-06-10T16:25:09.755Z,39.59
2023-06-10T16:27:36.838Z,39.59
2023-06-10T16:30:04.997Z,39.59
2023-06-10T16:32:31.692Z,39.75
2023-06-10T16:34:58.382Z,39.46
2023-06-10T16:37:24.961Z,39.55
2023-06-10T16:39:52.062Z,39.75
2023-06-10T16:42:18.617Z,40.03
2023-06-10T16:44:45.068Z,39.89
2023-06-10T16:47:11.910Z,39.53
2023-06-10T16:49:39.049Z,39.83
2023-06-10T16:52:06.586Z,39.72
2023-06-10T16:54:33.059Z,39.90
2023-06-10T16:56:59.500Z,39.73
2023-06-10T16:59:25.936Z,39.86
2023-06-10T17:01:52.475Z,40.06
2023-06-10T17:04:19.003Z,40.10
2023-06-10T17:06:45.472Z,40.20
2023-06-10T17:09:12.120Z,40.18
2023-06-10T17:11:38.737Z,40.17
2023-06-10T17:14:05.726Z,40.08
2023-06-10T17:16:32.293Z,40.24
2023-06-10T17:18:58.686Z,39.78
2023-06-10T17:21:25.338Z,39.77
2023-06-10T17:23:52.525Z,39.81
2023-06-10T17:26:19.098Z,40.03
2023-06-10T17:28:45.580Z,40.21
2023-06-10T17:31:12.312Z,40.23
2023-06-10T17:33:38.703Z,40.15
2023-06-10T17:36:05.899Z,40.20
2023-06-10T17:38:32.400Z,40.28
2023-06-10T17:40:59.030Z,40.02
2023-06-10T17:43:25.832Z,38.95
2023-06-10T17:45:52.790Z,37.98
2023-06-10T17:48:19.469Z,37.32
2023-06-10T17:50:46.189Z,36.88
2023-06-10T17:53:12.619Z,36.42
2023-06-10T17:55:39.539Z,36.02
2023-06-10T17:58:05.965Z,35.50
2023-06-10T18:00:34.289Z,35.17
2023-06-10T18:03:04.116Z,34.85
2023-06-10T18:05:30.831Z,34.51
2023-06-10T18:07:57.416Z,34.14
2023-06-10T18:10:24.098Z,34.17
2023-06-10T18:12:50.603Z,34.51
2023-06-10T18:15:17.013Z,35.28
2023-06-10T18:17:43.541Z,36.02
2023-06-10T18:20:12.918Z,36.46
2023-06-10T18:22:39.510Z,36.74
2023-06-10T18:25:06.298Z,36.74
2023-06-10T18:27:36.061Z,36.55
2023-06-10T18:30:03.675Z,35.94
2023-06-10T18:32:30.131Z,34.82
2023-06-10T18:34:56.611Z,34.12
2023-06-10T18:37:23.124Z,33.39
2023-06-10T18:39:50.342Z,32.81
2023-06-10T18:42:17.246Z,32.41
2023-06-10T18:44:43.700Z,32.06
2023-06-10T18:47:10.985Z,31.75
2023-06-10T18:49:37.555Z,31.67
2023-06-10T18:52:04.963Z,31.52
2023-06-10T18:54:31.461Z,31.43
2023-06-10T18:56:59.166Z,31.78
2023-06-10T18:59:25.656Z,31.71
2023-06-10T19:01:52.136Z,31.71
2023-06-10T19:04:18.733Z,31.28
2023-06-10T19:06:45.498Z,30.83
2023-06-10T19:09:12.122Z,30.53
2023-06-10T19:11:39.615Z,30.27
2023-06-10T19:14:07.987Z,30.04
2023-06-10T19:16:35.146Z,29.85
2023-06-10T19:19:01.641Z,29.68
2023-06-10T19:21:28.139Z,29.47
2023-06-10T19:23:57.550Z,29.24
2023-06-10T19:26:24.018Z,29.11
2023-06-10T19:28:50.625Z,28.93
2023-06-10T19:31:17.373Z,28.78
2023-06-10T19:33:44.221Z,28.65
2023-06-10T19:36:10.892Z,28.54
2023-06-10T19:38:38.177Z,28.45
2023-06-10T19:41:06.157Z,28.29
2023-06-10T19:43:32.931Z,28.21
2023-06-10T19:45:59.666Z,28.06
2023-06-10T19:48:26.752Z,27.91
2023-06-10T19:50:53.697Z,27.81
2023-06-10T19:53:20.160Z,27.70
2023-06-10T19:55:46.932Z,27.60
2023-06-10T19:58:13.599Z,27.52
2023-06-10T20:00:40.588Z,27.42
2023-06-10T20:03:07.189Z,27.28
2023-06-10T20:05:34.368Z,27.20
2023-06-10T20:08:01.126Z,27.08
2023-06-10T20:10:27.752Z,26.97
2023-06-10T20:12:54.596Z,26.86
2023-06-10T20:15:21.131Z,26.79
2023-06-10T20:17:48.585Z,26.68
2023-06-10T20:20:16.283Z,26.56
2023-06-10T20:22:42.762Z,26.48
2023-06-10T20:25:11.207Z,26.32
2023-06-10T20:27:39.191Z,26.19
2023-06-10T20:30:06.335Z,26.10
2023-06-10T20:32:32.903Z,26.03
2023-06-10T20:34:59.487Z,25.96
2023-06-10T20:37:26.206Z,25.91
2023-06-10T20:39:52.688Z,25.84
2023-06-10T20:42:19.287Z,25.77
2023-06-10T20:44:45.811Z,25.71
2023-06-10T20:47:12.400Z,25.65
2023-06-10T20:49:39.772Z,25.58
2023-06-10T20:52:06.597Z,25.50
2023-06-10T20:54:33.034Z,25.44
2023-06-10T20:56:59.521Z,25.38
2023-06-10T20:59:26.062Z,25.32
2023-06-10T21:01:52.779Z,25.24
2023-06-10T21:04:19.452Z,25.17
2023-06-10T21:06:46.376Z,25.16
2023-06-10T21:09:13.001Z,25.07
2023-06-10T21:11:39.525Z,25.00
2023-06-10T21:14:08.536Z,24.93
2023-06-10T21:16:36.091Z,24.88
2023-06-10T21:19:03.383Z,24.85
2023-06-10T21:21:30.015Z,24.74
2023-06-10T21:23:56.788Z,24.66
2023-06-10T21:26:23.385Z,24.55
2023-06-10T21:28:49.847Z,24.43
2023-06-10T21:31:16.717Z,24.35
2023-06-10T21:33:43.197Z,24.22
2023-06-10T21:36:09.622Z,24.11
2023-06-10T21:38:36.141Z,24.05
2023-06-10T21:41:02.928Z,23.92
2023-06-10T21:43:29.368Z,23.79
2023-06-10T21:45:57.591Z,23.70
2023-06-10T21:48:24.257Z,23.60
2023-06-10T21:50:50.969Z,23.57
2023-06-10T21:53:17.442Z,23.51
2023-06-10T21:55:43.894Z,23.39
2023-06-10T21:58:10.358Z,23.24
2023-06-10T22:00:37.441Z,23.11
2023-06-10T22:03:04.113Z,23.01
2023-06-10T22:05:30.829Z,22.90
2023-06-10T22:07:57.346Z,22.81
2023-06-10T22:10:23.933Z,22.74
2023-06-10T22:12:50.810Z,22.61
2023-06-10T22:15:17.431Z,22.54
2023-06-10T22:17:44.106Z,22.45
2023-06-10T22:22:40.139Z,22.30
2023-06-10T22:25:07.603Z,22.28
2023-06-10T22:27:34.170Z,22.22
2023-06-10T22:30:01.827Z,22.13
2023-06-10T22:32:28.348Z,22.02
2023-06-10T22:34:54.959Z,21.98
2023-06-10T22:37:22.023Z,22.00
2023-06-10T22:39:48.586Z,21.96
2023-06-10T22:42:15.189Z,21.94
2023-06-10T22:44:41.600Z,21.90
2023-06-10T22:47:08.557Z,21.88
2023-06-10T22:49:35.052Z,21.82
2023-06-10T22:52:01.800Z,21.74
2023-06-10T22:54:28.330Z,21.69
2023-06-10T22:56:55.044Z,21.66
2023-06-10T22:59:21.760Z,21.67
2023-06-10T23:01:48.444Z,21.62
2023-06-10T23:04:15.135Z,21.60
2023-06-10T23:06:41.679Z,21.63
2023-06-10T23:09:09.581Z,21.61
2023-06-10T23:11:36.225Z,21.58
2023-06-10T23:14:02.806Z,21.58
2023-06-10T23:16:29.371Z,21.51
2023-06-10T23:18:55.954Z,21.38
2023-06-10T23:21:22.546Z,21.31
2023-06-10T23:23:52.578Z,21.24
2023-06-10T23:26:19.281Z,21.17
2023-06-10T23:28:45.797Z,21.12
2023-06-10T23:31:12.483Z,21.10
2023-06-10T23:33:40.016Z,21.03
2023-06-10T23:36:06.857Z,21.04
2023-06-10T23:38:33.286Z,21.04
2023-06-10T23:40:59.805Z,21.04
2023-06-10T23:43:26.190Z,20.97
2023-06-10T23:45:52.633Z,20.93
2023-06-10T23:48:19.314Z,20.84
2023-06-10T23:50:46.069Z,20.80
2023-06-10T23:53:13.174Z,20.76
2023-06-10T23:55:39.768Z,20.73
2023-06-10T23:58:06.523Z,20.72
